Information Last Ob Photographs Calibration Meteogram Network Table Neighbors Monthly Summaries Observation History Wind Roses Custom Wind Roses Data Calendar Satellite Cloud Product Download

Most Recent Observation

This application displays the last observation received by the IEM from this site. The time stamp is in America/Chicago timezone.

Observation Local Time29 Feb 2024, 3:35 AM
Observation UTC Time2024-02-29T09:35:00Z
Air Temp [F]21.2
Maximum Air Temperature [F]24.8
Minimum Air Temperature [F]21.2
Dew Point [F]12.2
Wind DirectionSSE (160 degrees)
Wind Speed [knots]3
Altimeter [inches]30.37
Raw Observation/ProductKFSW 290935Z AUTO 16003KT 10SM M06/M11 A3037 RMK AO2

This data was provided by a JSON(P) webservice. You can find more JSON services.